aviador You're here:

OEDR Decoded Metar

DHAHRAN in SAUDI ARABIA
Report Time2017-09-24 22:00:00
UTC Time2017-09-24 22:59:08
Flight Rules vfr VFR
Wind260° at 03 kt
W.Decomp.*RWY 34: 0.4 kt HW 3 kt LCW
W.Rank260° ranks 26
Current wind is below 260° avg. (5.2)
Visibility9999 m
Phenomena:N/A
Clouds:N/A
Expected CloudBase > 2,800 ft AGL from Temp-Dew spread
CeilingNone
Temp29°C (ISA +14)
Dew Point22°C (66% RH)
Heat Index32.0°C
QNH1005 hPa
Density Alt2,293 ft
Elevation56 ft
Report Wrong Elevation
Raw Report
METAR OEDR 242200Z 26003KT CAVOK 29/22 Q1005 NOSIG=

Extra information for OEDR:More info

Metar Taf Metar & Taf Last 4 Metars F.Rules Stats Wind Profile Meteogram Temp Stats Airport Information Weather charts Add Link Nearby VenuesMetar ALERT Operation Metar Decoded Social comments